createdAt,value
2023-08-14T00:02:11.838Z,17.87
2023-08-14T00:04:38.965Z,17.81
2023-08-14T00:07:06.238Z,17.81
2023-08-14T00:09:33.393Z,17.80
2023-08-14T00:12:03.896Z,17.77
2023-08-14T00:14:31.094Z,17.77
2023-08-14T00:16:58.184Z,17.77
2023-08-14T00:19:25.479Z,17.77
2023-08-14T00:21:52.540Z,17.74
2023-08-14T00:24:19.666Z,17.74
2023-08-14T00:26:46.816Z,17.75
2023-08-14T00:29:13.901Z,17.75
2023-08-14T00:31:42.754Z,17.74
2023-08-14T00:34:09.983Z,17.73
2023-08-14T00:36:37.160Z,17.73
2023-08-14T00:39:06.064Z,17.69
2023-08-14T00:41:33.561Z,17.66
2023-08-14T00:44:00.699Z,17.62
2023-08-14T00:46:28.043Z,17.56
2023-08-14T00:48:55.561Z,17.52
2023-08-14T00:51:22.965Z,17.43
2023-08-14T00:53:50.915Z,17.33
2023-08-14T00:56:18.615Z,17.31
2023-08-14T00:58:45.730Z,17.33
2023-08-14T01:01:12.971Z,17.32
2023-08-14T01:03:41.341Z,17.32
2023-08-14T01:06:08.686Z,17.29
2023-08-14T01:08:36.054Z,17.29
2023-08-14T01:11:24.424Z,17.28
2023-08-14T01:14:21.185Z,17.25
2023-08-14T01:16:52.847Z,17.18
2023-08-14T01:19:26.185Z,17.15
2023-08-14T01:22:12.635Z,17.16
2023-08-14T01:24:52.556Z,17.17
2023-08-14T01:27:20.514Z,17.13
2023-08-14T01:29:58.519Z,17.07
2023-08-14T01:32:25.719Z,17.05
2023-08-14T01:34:53.288Z,17.06
2023-08-14T01:37:34.424Z,17.08
2023-08-14T01:40:10.974Z,17.06
2023-08-14T01:42:40.420Z,17.06
2023-08-14T01:45:14.171Z,17.06
2023-08-14T01:47:41.512Z,17.06
2023-08-14T01:50:08.931Z,17.08
2023-08-14T01:52:36.007Z,17.07
2023-08-14T01:55:03.926Z,17.06
2023-08-14T01:57:32.472Z,17.04
2023-08-14T01:59:59.544Z,17.00
2023-08-14T02:02:27.548Z,16.99
2023-08-14T02:04:58.391Z,16.99
2023-08-14T02:07:25.540Z,17.00
2023-08-14T02:09:56.490Z,17.00
2023-08-14T02:12:23.694Z,16.98
2023-08-14T02:14:50.906Z,16.94
2023-08-14T02:17:19.506Z,16.92
2023-08-14T02:19:47.125Z,16.89
2023-08-14T02:22:14.306Z,16.87
2023-08-14T02:24:41.493Z,16.83
2023-08-14T02:27:08.622Z,16.80
2023-08-14T02:29:35.978Z,16.77
2023-08-14T02:32:03.120Z,16.76
2023-08-14T02:34:49.746Z,16.76
2023-08-14T02:37:18.157Z,16.75
2023-08-14T02:39:45.479Z,16.73
2023-08-14T02:42:13.376Z,16.69
2023-08-14T02:44:40.541Z,16.61
2023-08-14T02:47:07.652Z,16.54
2023-08-14T02:49:34.876Z,16.52
2023-08-14T02:52:02.069Z,16.51
2023-08-14T02:54:29.244Z,16.49
2023-08-14T02:56:56.398Z,16.48
2023-08-14T02:59:23.724Z,16.42
2023-08-14T03:01:50.819Z,16.37
2023-08-14T03:04:18.456Z,16.34
2023-08-14T03:06:46.514Z,16.34
2023-08-14T03:09:13.754Z,16.33
2023-08-14T03:11:40.928Z,16.30
2023-08-14T03:14:08.575Z,16.28
2023-08-14T03:16:35.771Z,16.24
2023-08-14T03:19:03.345Z,16.21
2023-08-14T03:21:30.550Z,16.21
2023-08-14T03:23:57.744Z,16.20
2023-08-14T03:26:24.930Z,16.21
2023-08-14T03:28:52.204Z,16.19
2023-08-14T03:31:19.414Z,16.20
2023-08-14T03:33:46.658Z,16.21
2023-08-14T03:36:15.741Z,16.21
2023-08-14T03:38:42.868Z,16.20
2023-08-14T03:41:11.787Z,16.19
2023-08-14T03:43:38.992Z,16.20
2023-08-14T03:46:06.120Z,16.21
2023-08-14T03:48:33.296Z,16.22
2023-08-14T03:51:00.348Z,16.25
2023-08-14T03:53:27.437Z,16.27
2023-08-14T03:55:54.583Z,16.25
2023-08-14T03:58:21.812Z,16.22
2023-08-14T04:00:48.881Z,16.25
2023-08-14T04:03:16.204Z,16.31
2023-08-14T04:05:44.534Z,16.38
2023-08-14T04:08:12.416Z,16.41
2023-08-14T04:10:40.463Z,16.39
2023-08-14T04:13:11.527Z,16.40
2023-08-14T04:15:38.877Z,16.39
2023-08-14T04:18:06.205Z,16.43
2023-08-14T04:20:33.587Z,16.48
2023-08-14T04:23:00.674Z,16.50
2023-08-14T04:25:27.777Z,16.55
2023-08-14T04:27:55.935Z,16.57
2023-08-14T04:30:23.123Z,16.61
2023-08-14T04:32:51.053Z,16.66
2023-08-14T04:35:18.662Z,16.72
2023-08-14T04:37:47.571Z,16.78
2023-08-14T04:40:14.689Z,16.83
2023-08-14T04:42:42.925Z,16.90
2023-08-14T04:45:11.941Z,16.97
2023-08-14T04:47:39.064Z,17.03
2023-08-14T04:50:07.304Z,17.10
2023-08-14T04:52:34.473Z,17.16
2023-08-14T04:55:01.850Z,17.21
2023-08-14T04:57:33.413Z,17.28
2023-08-14T05:00:00.807Z,17.33
2023-08-14T05:02:30.675Z,17.42
2023-08-14T05:04:57.989Z,17.48
2023-08-14T05:07:27.467Z,17.53
2023-08-14T05:09:55.138Z,17.60
2023-08-14T05:12:22.419Z,17.68
2023-08-14T05:14:49.577Z,17.76
2023-08-14T05:17:18.048Z,17.83
2023-08-14T05:19:45.205Z,17.91
2023-08-14T05:22:12.327Z,17.99
2023-08-14T05:24:39.448Z,18.08
2023-08-14T05:27:06.542Z,18.15
2023-08-14T05:29:33.619Z,18.25
2023-08-14T05:32:01.550Z,18.35
2023-08-14T05:34:28.821Z,18.46
2023-08-14T05:36:55.935Z,18.58
2023-08-14T05:39:23.067Z,18.66
2023-08-14T05:41:51.197Z,18.77
2023-08-14T05:44:18.967Z,18.89
2023-08-14T05:46:48.241Z,19.00
2023-08-14T05:49:18.676Z,19.09
2023-08-14T05:51:46.251Z,19.20
2023-08-14T05:54:13.463Z,19.33
2023-08-14T05:56:41.740Z,19.43
2023-08-14T05:59:09.115Z,19.55
2023-08-14T06:01:36.282Z,19.68
2023-08-14T06:04:03.506Z,19.80
2023-08-14T06:06:31.649Z,19.93
2023-08-14T06:09:01.058Z,20.07
2023-08-14T06:11:29.496Z,20.24
2023-08-14T06:13:56.809Z,20.38
2023-08-14T06:16:24.150Z,20.51
2023-08-14T06:18:51.389Z,20.64
2023-08-14T06:21:21.398Z,20.76
2023-08-14T06:23:48.480Z,20.87
2023-08-14T06:26:16.268Z,20.99
2023-08-14T06:28:43.502Z,21.10
2023-08-14T06:31:10.775Z,21.23
2023-08-14T06:33:38.912Z,21.37
2023-08-14T06:36:06.936Z,21.52
2023-08-14T06:38:35.100Z,21.69
2023-08-14T06:41:02.262Z,21.82
2023-08-14T06:43:29.412Z,21.96
2023-08-14T06:45:56.478Z,22.08
2023-08-14T06:48:23.571Z,22.20
2023-08-14T06:50:50.707Z,22.33
2023-08-14T06:53:19.274Z,22.42
2023-08-14T06:55:48.799Z,22.53
2023-08-14T06:58:15.918Z,22.67
2023-08-14T07:00:42.980Z,22.74
2023-08-14T07:03:10.259Z,22.84
2023-08-14T07:05:37.566Z,22.92
2023-08-14T07:08:05.118Z,23.01
2023-08-14T07:10:32.346Z,23.14
2023-08-14T07:13:00.361Z,23.27
2023-08-14T07:15:28.062Z,23.35
2023-08-14T07:17:55.313Z,23.44
2023-08-14T07:20:25.793Z,23.57
2023-08-14T07:22:55.657Z,23.68
2023-08-14T07:25:25.673Z,23.77
2023-08-14T07:27:52.887Z,23.87
2023-08-14T07:30:20.116Z,23.98
2023-08-14T07:32:47.407Z,24.11
2023-08-14T07:35:14.725Z,24.23
2023-08-14T07:37:41.923Z,24.31
2023-08-14T07:40:09.709Z,24.43
2023-08-14T07:42:36.842Z,24.54
2023-08-14T07:45:04.294Z,24.65
2023-08-14T07:47:31.523Z,24.75
2023-08-14T07:49:58.673Z,24.87
2023-08-14T07:52:26.131Z,24.96
2023-08-14T07:54:53.393Z,25.09
2023-08-14T07:57:22.092Z,25.20
2023-08-14T07:59:49.236Z,25.25
2023-08-14T08:02:16.832Z,25.32
2023-08-14T08:04:44.261Z,25.39
2023-08-14T08:07:11.455Z,25.48
2023-08-14T08:09:38.593Z,25.56
2023-08-14T08:12:06.489Z,25.65
2023-08-14T08:14:35.352Z,25.74
2023-08-14T08:17:07.222Z,25.84
2023-08-14T08:19:34.361Z,25.95
2023-08-14T08:22:01.463Z,26.03
2023-08-14T08:24:28.662Z,26.15
2023-08-14T08:26:55.959Z,26.27
2023-08-14T08:29:23.314Z,26.38
2023-08-14T08:31:50.538Z,26.46
2023-08-14T08:34:17.694Z,26.51
2023-08-14T08:36:44.781Z,26.58
2023-08-14T08:39:11.981Z,26.66
2023-08-14T08:41:45.238Z,26.75
2023-08-14T08:44:24.331Z,26.87
2023-08-14T08:46:56.103Z,26.97
2023-08-14T08:49:23.271Z,27.02
2023-08-14T08:51:50.654Z,27.08
2023-08-14T08:54:17.855Z,27.18
2023-08-14T08:56:44.904Z,27.27
2023-08-14T08:59:13.380Z,27.37
2023-08-14T09:01:42.868Z,27.43
2023-08-14T09:04:10.229Z,27.49
2023-08-14T09:06:38.501Z,27.55
2023-08-14T09:09:05.978Z,27.57
2023-08-14T09:11:33.025Z,27.61
2023-08-14T09:14:00.289Z,27.68
2023-08-14T09:16:28.884Z,27.78
2023-08-14T09:18:59.690Z,27.86
2023-08-14T09:21:28.078Z,27.94
2023-08-14T09:23:55.928Z,28.06
2023-08-14T09:26:23.616Z,28.20
2023-08-14T09:28:50.891Z,28.29
2023-08-14T09:31:18.480Z,28.34
2023-08-14T09:33:46.549Z,28.41
2023-08-14T09:36:14.477Z,28.47
2023-08-14T09:38:41.641Z,28.54
2023-08-14T09:41:10.259Z,28.62
2023-08-14T09:43:37.441Z,28.70
2023-08-14T09:46:04.825Z,28.80
2023-08-14T09:48:48.846Z,28.87
2023-08-14T09:51:17.807Z,28.91
2023-08-14T09:53:49.147Z,28.93
2023-08-14T09:56:18.570Z,28.93
2023-08-14T09:58:48.329Z,28.97
2023-08-14T10:01:20.122Z,29.03
2023-08-14T10:03:58.601Z,29.12
2023-08-14T10:06:26.613Z,29.24
2023-08-14T10:08:56.614Z,29.35
2023-08-14T10:11:24.383Z,29.46
2023-08-14T10:13:54.580Z,29.56
2023-08-14T10:16:29.520Z,29.64
2023-08-14T10:18:57.937Z,29.69
2023-08-14T10:21:30.362Z,29.77
2023-08-14T10:23:58.161Z,29.86
2023-08-14T10:26:27.826Z,29.93
2023-08-14T10:28:55.616Z,30.01
2023-08-14T10:31:22.759Z,30.07
2023-08-14T10:33:49.920Z,30.07
2023-08-14T10:36:21.126Z,30.10
2023-08-14T10:38:48.848Z,30.15
2023-08-14T10:41:17.894Z,30.16
2023-08-14T10:43:48.970Z,30.16
2023-08-14T10:46:16.282Z,30.21
2023-08-14T10:48:45.085Z,30.20
2023-08-14T10:51:14.647Z,30.21
2023-08-14T10:53:42.430Z,30.22
2023-08-14T10:56:11.584Z,30.20
2023-08-14T10:58:39.797Z,30.23
2023-08-14T11:01:08.494Z,30.35
2023-08-14T11:03:55.434Z,30.46
2023-08-14T11:06:27.119Z,30.53
2023-08-14T11:09:02.990Z,30.51
2023-08-14T11:11:30.185Z,30.53
2023-08-14T11:13:58.055Z,30.52
2023-08-14T11:16:25.416Z,30.49
2023-08-14T11:18:52.904Z,30.48
2023-08-14T11:21:31.624Z,30.50
2023-08-14T11:24:00.053Z,30.55
2023-08-14T11:26:33.241Z,30.63
2023-08-14T11:29:00.464Z,30.69
2023-08-14T11:31:34.195Z,30.78
2023-08-14T11:34:02.143Z,30.87
2023-08-14T11:36:34.511Z,30.91
2023-08-14T11:39:02.182Z,30.96
2023-08-14T11:41:32.404Z,31.02
2023-08-14T11:43:59.673Z,31.06
2023-08-14T11:46:27.009Z,31.09
2023-08-14T11:48:54.137Z,31.14
2023-08-14T11:51:21.591Z,31.17
2023-08-14T11:53:49.103Z,31.19
2023-08-14T11:56:16.441Z,31.23
2023-08-14T11:58:47.975Z,31.25
2023-08-14T12:01:19.390Z,31.23
2023-08-14T12:03:47.649Z,31.21
2023-08-14T12:06:14.728Z,31.22
2023-08-14T12:08:42.555Z,31.22
2023-08-14T12:11:11.076Z,31.24
2023-08-14T12:13:39.212Z,31.27
2023-08-14T12:16:11.802Z,31.28
2023-08-14T12:18:47.143Z,31.29
2023-08-14T12:21:14.295Z,31.32
2023-08-14T12:23:48.638Z,31.39
2023-08-14T12:26:16.629Z,31.47
2023-08-14T12:28:44.675Z,31.53
2023-08-14T12:31:12.657Z,31.53
2023-08-14T12:33:44.081Z,31.49
2023-08-14T12:36:12.601Z,31.51
2023-08-14T12:38:39.850Z,31.58
2023-08-14T12:41:07.110Z,31.67
2023-08-14T12:43:40.177Z,31.73
2023-08-14T12:46:12.928Z,31.77
2023-08-14T12:48:40.995Z,31.80
2023-08-14T12:53:41.934Z,31.79
2023-08-14T12:56:09.140Z,31.78
2023-08-14T12:58:36.257Z,31.78
2023-08-14T13:01:05.530Z,31.77
2023-08-14T13:03:36.957Z,31.78
2023-08-14T13:06:06.612Z,31.80
2023-08-14T13:08:33.846Z,31.84
2023-08-14T13:11:00.978Z,31.90
2023-08-14T13:13:28.635Z,31.94
2023-08-14T13:15:56.802Z,31.94
2023-08-14T13:18:24.606Z,31.92
2023-08-14T13:20:51.978Z,31.81
2023-08-14T13:23:19.171Z,31.81
2023-08-14T13:25:46.259Z,31.80
2023-08-14T13:28:13.658Z,31.77
2023-08-14T13:30:43.251Z,31.80
2023-08-14T13:33:12.925Z,31.81
2023-08-14T13:35:40.339Z,31.77
2023-08-14T13:38:07.602Z,31.77
2023-08-14T13:40:35.066Z,31.78
2023-08-14T13:43:02.422Z,31.78
2023-08-14T13:45:30.840Z,31.81
2023-08-14T13:47:58.758Z,31.82
2023-08-14T13:50:33.061Z,31.84
2023-08-14T13:53:04.276Z,31.86
2023-08-14T13:55:32.626Z,31.81
2023-08-14T13:58:00.309Z,31.79
2023-08-14T14:00:30.127Z,31.75
2023-08-14T14:03:00.173Z,31.74
2023-08-14T14:05:28.520Z,31.76
2023-08-14T14:07:57.690Z,31.72
2023-08-14T14:10:26.625Z,31.65
2023-08-14T14:15:24.700Z,31.57
2023-08-14T14:17:51.944Z,31.50
2023-08-14T14:20:19.321Z,31.49
2023-08-14T14:22:47.556Z,31.47
2023-08-14T14:25:14.779Z,31.43
2023-08-14T14:27:41.914Z,31.41
2023-08-14T14:30:09.539Z,31.41
2023-08-14T14:32:36.807Z,31.39
2023-08-14T14:35:04.329Z,31.38
2023-08-14T14:37:32.636Z,31.35
2023-08-14T14:39:59.852Z,31.32
2023-08-14T14:42:26.998Z,31.26
2023-08-14T14:44:55.088Z,31.22
2023-08-14T14:47:25.634Z,31.22
2023-08-14T14:49:53.083Z,31.22
2023-08-14T14:52:20.555Z,31.17
2023-08-14T14:54:48.381Z,31.11
2023-08-14T14:57:18.892Z,31.06
2023-08-14T14:59:48.184Z,31.02
2023-08-14T15:02:27.604Z,31.00
2023-08-14T15:04:56.958Z,30.98
2023-08-14T15:07:24.106Z,30.93
2023-08-14T15:09:51.188Z,30.88
2023-08-14T15:12:18.434Z,30.86
2023-08-14T15:14:46.014Z,30.83
2023-08-14T15:17:15.886Z,30.80
2023-08-14T15:19:43.647Z,30.75
2023-08-14T15:22:10.775Z,30.71
2023-08-14T15:24:37.856Z,30.66
2023-08-14T15:27:07.906Z,30.63
2023-08-14T15:29:35.069Z,30.58
2023-08-14T15:32:02.266Z,30.54
2023-08-14T15:34:30.674Z,30.53
2023-08-14T15:36:58.765Z,30.52
2023-08-14T15:39:30.711Z,30.50
2023-08-14T15:41:57.867Z,30.48
2023-08-14T15:44:25.807Z,30.45
2023-08-14T15:46:53.048Z,30.41
2023-08-14T15:49:20.662Z,30.36
2023-08-14T15:51:47.813Z,30.31
2023-08-14T15:54:14.925Z,30.26
2023-08-14T15:56:42.178Z,30.20
2023-08-14T15:59:11.080Z,30.15
2023-08-14T16:01:38.174Z,30.09
2023-08-14T16:04:05.621Z,30.03
2023-08-14T16:06:32.842Z,29.96
2023-08-14T16:08:59.929Z,29.90
2023-08-14T16:11:27.103Z,29.83
2023-08-14T16:13:54.342Z,29.79
2023-08-14T16:16:21.480Z,29.74
2023-08-14T16:18:48.718Z,29.65
2023-08-14T16:21:15.852Z,29.58
2023-08-14T16:23:43.001Z,29.53
2023-08-14T16:26:10.095Z,29.46
2023-08-14T16:28:37.270Z,29.35
2023-08-14T16:31:06.247Z,29.27
2023-08-14T16:33:33.413Z,29.21
2023-08-14T16:36:00.668Z,29.14
2023-08-14T16:38:27.759Z,29.06
2023-08-14T16:40:54.889Z,28.97
2023-08-14T16:43:22.011Z,28.88
2023-08-14T16:45:49.591Z,28.78
2023-08-14T16:48:17.887Z,28.67
2023-08-14T16:50:45.375Z,28.56
2023-08-14T16:53:12.562Z,28.50
2023-08-14T16:55:41.445Z,28.43
2023-08-14T16:58:08.533Z,28.34
2023-08-14T17:00:35.851Z,28.30
2023-08-14T17:03:04.022Z,28.26
2023-08-14T17:05:32.663Z,28.21
2023-08-14T17:07:59.642Z,28.12
2023-08-14T17:10:27.672Z,28.01
2023-08-14T17:12:54.797Z,27.91
2023-08-14T17:15:22.708Z,27.82
2023-08-14T17:17:52.830Z,27.74
2023-08-14T17:20:20.142Z,27.63
2023-08-14T17:22:47.356Z,27.54
2023-08-14T17:25:14.739Z,27.44
2023-08-14T17:27:43.270Z,27.35
2023-08-14T17:30:10.671Z,27.25
2023-08-14T17:32:39.639Z,27.17
2023-08-14T17:35:07.097Z,27.05
2023-08-14T17:37:34.242Z,26.96
2023-08-14T17:40:02.726Z,26.89
2023-08-14T17:42:30.177Z,26.79
2023-08-14T17:44:57.298Z,26.67
2023-08-14T17:47:25.241Z,26.55
2023-08-14T17:49:55.513Z,26.45
2023-08-14T17:52:22.804Z,26.31
2023-08-14T17:54:49.950Z,26.19
2023-08-14T17:57:17.091Z,26.09
2023-08-14T17:59:44.872Z,25.96
2023-08-14T18:02:12.129Z,25.82
2023-08-14T18:04:39.269Z,25.68
2023-08-14T18:07:06.381Z,25.57
2023-08-14T18:09:34.092Z,25.48
2023-08-14T18:12:01.289Z,25.36
2023-08-14T18:14:28.432Z,25.26
2023-08-14T18:16:55.896Z,25.16
2023-08-14T18:19:29.741Z,25.04
2023-08-14T18:21:58.605Z,24.93
2023-08-14T18:24:27.216Z,24.84
2023-08-14T18:26:54.761Z,24.76
2023-08-14T18:29:22.888Z,24.67
2023-08-14T18:31:50.612Z,24.58
2023-08-14T18:34:22.760Z,24.47
2023-08-14T18:36:49.954Z,24.36
2023-08-14T18:39:17.108Z,24.28
2023-08-14T18:41:45.015Z,24.18
2023-08-14T18:44:12.357Z,24.07
2023-08-14T18:46:39.579Z,23.99
2023-08-14T18:49:06.931Z,23.90
2023-08-14T18:51:34.042Z,23.83
2023-08-14T18:54:02.880Z,23.73
2023-08-14T18:56:30.063Z,23.63
2023-08-14T18:58:59.349Z,23.51
2023-08-14T19:01:26.548Z,23.41
2023-08-14T19:03:53.782Z,23.31
2023-08-14T19:06:20.913Z,23.23
2023-08-14T19:08:50.225Z,23.16
2023-08-14T19:11:17.565Z,23.10
2023-08-14T19:13:44.719Z,23.06
2023-08-14T19:16:11.981Z,23.02
2023-08-14T19:18:39.407Z,22.99
2023-08-14T19:21:07.492Z,22.95
2023-08-14T19:23:34.668Z,22.89
2023-08-14T19:26:08.993Z,22.85
2023-08-14T19:28:42.488Z,22.80
2023-08-14T19:31:09.810Z,22.76
2023-08-14T19:33:37.104Z,22.77
2023-08-14T19:36:05.161Z,22.73
2023-08-14T19:38:32.768Z,22.71
2023-08-14T19:41:01.980Z,22.69
2023-08-14T19:43:29.658Z,22.66
2023-08-14T19:45:56.774Z,22.65
2023-08-14T19:48:23.891Z,22.64
2023-08-14T19:50:51.281Z,22.61
2023-08-14T19:53:18.494Z,22.58
2023-08-14T19:55:45.543Z,22.54
2023-08-14T19:58:16.781Z,22.49
2023-08-14T20:00:43.907Z,22.43
2023-08-14T20:03:11.443Z,22.29
2023-08-14T20:05:39.771Z,22.20
2023-08-14T20:08:07.054Z,22.14
2023-08-14T20:10:34.168Z,22.08
2023-08-14T20:13:01.293Z,22.04
2023-08-14T20:15:28.549Z,22.01
2023-08-14T20:17:55.883Z,21.99
2023-08-14T20:20:23.655Z,21.96
2023-08-14T20:22:51.700Z,21.90
2023-08-14T20:25:19.292Z,21.85
2023-08-14T20:27:46.327Z,21.79
2023-08-14T20:30:14.467Z,21.75
2023-08-14T20:32:41.559Z,21.67
2023-08-14T20:35:09.732Z,21.62
2023-08-14T20:37:37.673Z,21.58
2023-08-14T20:40:06.302Z,21.55
2023-08-14T20:42:33.494Z,21.48
2023-08-14T20:45:00.636Z,21.37
2023-08-14T20:47:27.791Z,21.29
2023-08-14T20:49:55.207Z,21.21
2023-08-14T20:52:23.606Z,21.14
2023-08-14T20:54:51.275Z,21.08
2023-08-14T20:57:19.562Z,21.03
2023-08-14T20:59:48.771Z,20.99
2023-08-14T21:02:20.230Z,20.91
2023-08-14T21:04:48.154Z,20.88
2023-08-14T21:07:15.382Z,20.87
2023-08-14T21:09:42.538Z,20.83
2023-08-14T21:12:09.996Z,20.80
2023-08-14T21:14:37.183Z,20.80
2023-08-14T21:17:04.322Z,20.84
2023-08-14T21:19:31.500Z,20.86
2023-08-14T21:21:58.759Z,20.86
2023-08-14T21:24:25.866Z,20.82
2023-08-14T21:26:53.032Z,20.78
2023-08-14T21:29:20.707Z,20.76
2023-08-14T21:31:48.164Z,20.72
2023-08-14T21:34:17.432Z,20.72
2023-08-14T21:36:44.564Z,20.72
2023-08-14T21:39:11.789Z,20.69
2023-08-14T21:41:38.925Z,20.67
2023-08-14T21:44:06.252Z,20.65
2023-08-14T21:46:35.216Z,20.64
2023-08-14T21:49:02.743Z,20.62
2023-08-14T21:51:30.019Z,20.61
2023-08-14T21:53:57.203Z,20.60
2023-08-14T21:56:24.276Z,20.61
2023-08-14T21:58:51.392Z,20.64
2023-08-14T22:01:18.550Z,20.67
2023-08-14T22:03:45.703Z,20.69
2023-08-14T22:06:13.661Z,20.66
2023-08-14T22:08:40.757Z,20.59
2023-08-14T22:11:07.838Z,20.60
2023-08-14T22:13:35.692Z,20.61
2023-08-14T22:16:02.904Z,20.60
2023-08-14T22:18:30.280Z,20.56
2023-08-14T22:20:57.445Z,20.56
2023-08-14T22:23:24.587Z,20.55
2023-08-14T22:25:51.650Z,20.56
2023-08-14T22:28:18.738Z,20.55
2023-08-14T22:30:45.816Z,20.53
2023-08-14T22:33:12.955Z,20.48
2023-08-14T22:35:40.203Z,20.45
2023-08-14T22:38:08.960Z,20.44
2023-08-14T22:40:36.865Z,20.42
2023-08-14T22:43:04.088Z,20.40
2023-08-14T22:48:04.305Z,20.33
2023-08-14T22:50:31.586Z,20.29
2023-08-14T22:52:58.909Z,20.28
2023-08-14T22:55:26.664Z,20.22
2023-08-14T22:57:59.632Z,20.13
2023-08-14T23:00:28.032Z,20.07
2023-08-14T23:02:59.170Z,20.02
2023-08-14T23:05:26.285Z,19.96
2023-08-14T23:07:54.712Z,19.88
2023-08-14T23:10:23.751Z,19.80
2023-08-14T23:12:50.868Z,19.73
2023-08-14T23:15:18.656Z,19.70
2023-08-14T23:17:45.809Z,19.68
2023-08-14T23:20:15.368Z,19.68
2023-08-14T23:22:42.643Z,19.68
2023-08-14T23:25:14.915Z,19.66
2023-08-14T23:27:44.068Z,19.66
2023-08-14T23:30:17.080Z,19.66
2023-08-14T23:32:46.753Z,19.65
2023-08-14T23:35:13.836Z,19.60
2023-08-14T23:37:41.056Z,19.56
2023-08-14T23:40:09.565Z,19.53
2023-08-14T23:42:45.978Z,19.50
2023-08-14T23:45:13.512Z,19.48
2023-08-14T23:47:40.612Z,19.46
2023-08-14T23:50:08.141Z,19.43
2023-08-14T23:52:35.716Z,19.39
2023-08-14T23:55:02.909Z,19.36
2023-08-14T23:57:30.044Z,19.34
2023-08-14T23:59:57.660Z,19.34
